Time;durP1;ratioP1;P1;durP2;ratioP2;P2;SDS_P1;SDS_P2;PMS_P1;PMS_P2;Temp;Humidity;BMP_temperature;BMP_pressure;BME280_temperature;BME280_humidity;BME280_pressure;Samples;Min_cycle;Max_cycle;Signal;HPM_P1;HPM_P2
2024/04/27 00:02:26;;;;;;;;;14.00;13.00;;;;;;;;6491771;39;8942;-68
2024/04/27 00:08:30;;;;;;;;;14.00;13.75;;;;;;;;6494590;39;8960;-67
2024/04/27 00:14:35;;;;;;;;;13.75;13.00;;;;;;;;6493721;46;8977;-67
2024/04/27 00:20:38;;;;;;;;;12.75;12.75;;;;;;;;6493647;46;8845;-67
2024/04/27 00:26:39;;;;;;;;;14.00;13.50;;;;;;;;6493784;39;8947;-67
2024/04/27 00:32:46;;;;;;;;;18.00;12.50;;;;;;;;6494355;46;9059;-69
2024/04/27 00:38:50;;;;;;;;;13.75;13.75;;;;;;;;6494865;39;8862;-67
2024/04/27 00:44:51;;;;;;;;;14.00;14.00;;;;;;;;6492770;31;8964;-69
2024/04/27 00:50:52;;;;;;;;;12.50;12.50;;;;;;;;6493654;39;9494;-67
2024/04/27 00:56:59;;;;;;;;;17.50;17.25;;;;;;;;6492965;31;8893;-68
2024/04/27 01:03:04;;;;;;;;;17.50;17.50;;;;;;;;6493535;46;8928;-68
2024/04/27 01:09:07;;;;;;;;;13.25;11.50;;;;;;;;6492747;46;9055;-68
2024/04/27 01:15:15;;;;;;;;;21.00;18.75;;;;;;;;6491386;31;8986;-68
2024/04/27 01:21:17;;;;;;;;;19.50;19.50;;;;;;;;6492244;39;8849;-67
2024/04/27 01:27:20;;;;;;;;;19.67;18.00;;;;;;;;6490403;46;9010;-67
2024/04/27 01:33:23;;;;;;;;;22.25;20.00;;;;;;;;6491127;39;9137;-66
2024/04/27 01:39:26;;;;;;;;;27.00;22.25;;;;;;;;6491354;39;9007;-70
2024/04/27 01:45:28;;;;;;;;;19.50;19.25;;;;;;;;6491194;39;9067;-67
2024/04/27 01:51:31;;;;;;;;;24.00;20.75;;;;;;;;6490832;46;8896;-68
2024/04/27 01:57:32;;;;;;;;;25.00;22.50;;;;;;;;6491519;31;8965;-69
2024/04/27 02:03:35;;;;;;;;;22.25;22.00;;;;;;;;6491069;39;8943;-67
2024/04/27 02:09:40;;;;;;;;;24.75;22.25;;;;;;;;6489782;46;8924;-68
2024/04/27 02:22:24;;;;;;;;;23.75;23.75;;;;;;;;6490109;46;8879;-67
2024/04/27 02:28:27;;;;;;;;;21.00;20.00;;;;;;;;6490968;39;8974;-68
2024/04/27 02:34:28;;;;;;;;;27.25;23.25;;;;;;;;6491740;31;8869;-68
2024/04/27 02:40:30;;;;;;;;;22.25;20.50;;;;;;;;6490043;46;8945;-68
2024/04/27 02:46:33;;;;;;;;;21.50;20.75;;;;;;;;6490570;39;8955;-68
2024/04/27 02:52:38;;;;;;;;;24.25;22.00;;;;;;;;6490428;39;8987;-68
2024/04/27 02:58:40;;;;;;;;;26.50;22.25;;;;;;;;6490591;46;8885;-69
2024/04/27 03:04:44;;;;;;;;;29.25;28.75;;;;;;;;6490324;46;8997;-68
2024/04/27 03:10:50;;;;;;;;;22.50;20.75;;;;;;;;6488982;31;8923;-68
2024/04/27 03:17:03;;;;;;;;;27.25;25.25;;;;;;;;6490981;31;9058;-69
2024/04/27 03:23:22;;;;;;;;;22.25;21.75;;;;;;;;6489748;39;8901;-68
2024/04/27 03:29:27;;;;;;;;;25.00;23.00;;;;;;;;6489515;46;8907;-68
2024/04/27 03:35:35;;;;;;;;;24.25;21.50;;;;;;;;6489087;39;8968;-66
2024/04/27 03:41:43;;;;;;;;;22.75;20.50;;;;;;;;6489328;39;8912;-67
2024/04/27 03:47:55;;;;;;;;;22.75;20.25;;;;;;;;6489857;39;9806;-67
2024/04/27 03:53:58;;;;;;;;;26.75;23.00;;;;;;;;6490043;39;8863;-66
2024/04/27 04:00:04;;;;;;;;;21.00;21.00;;;;;;;;6490153;39;8913;-68
2024/04/27 04:06:12;;;;;;;;;24.00;22.00;;;;;;;;6488960;31;9022;-67
2024/04/27 04:12:14;;;;;;;;;25.00;24.50;;;;;;;;6488477;47;8896;-69
2024/04/27 04:18:19;;;;;;;;;25.50;22.50;;;;;;;;6489653;47;8911;-68
2024/04/27 04:24:21;;;;;;;;;25.25;24.00;;;;;;;;6489521;31;8926;-67
2024/04/27 04:30:31;;;;;;;;;25.25;22.75;;;;;;;;6490698;31;8882;-68
2024/04/27 04:36:34;;;;;;;;;31.50;27.75;;;;;;;;6489479;39;8901;-68
2024/04/27 04:42:45;;;;;;;;;31.75;28.50;;;;;;;;6489276;39;8867;-67
2024/04/27 04:48:48;;;;;;;;;25.25;23.50;;;;;;;;6489398;46;8924;-67
2024/04/27 04:54:50;;;;;;;;;24.50;23.75;;;;;;;;6490689;46;8922;-68
2024/04/27 05:00:52;;;;;;;;;25.00;22.75;;;;;;;;6489959;39;9751;-67
2024/04/27 05:06:56;;;;;;;;;28.00;25.25;;;;;;;;6491675;39;8935;-68
2024/04/27 05:13:05;;;;;;;;;27.25;25.25;;;;;;;;6491184;39;9075;-68
2024/04/27 05:19:08;;;;;;;;;36.25;27.75;;;;;;;;6491497;31;8848;-68
2024/04/27 05:25:11;;;;;;;;;23.50;20.25;;;;;;;;6491022;39;9687;-68
2024/04/27 05:31:17;;;;;;;;;20.75;20.25;;;;;;;;6490949;39;8982;-69
2024/04/27 05:37:18;;;;;;;;;25.25;24.50;;;;;;;;6491181;39;9174;-68
2024/04/27 05:43:24;;;;;;;;;22.25;21.00;;;;;;;;6490985;39;8848;-66
2024/04/27 05:49:27;;;;;;;;;26.00;24.75;;;;;;;;6490536;39;10199;-68
2024/04/27 05:55:29;;;;;;;;;24.00;21.33;;;;;;;;6490575;31;8875;-67
2024/04/27 06:01:32;;;;;;;;;22.50;21.00;;;;;;;;6491233;39;9520;-68
2024/04/27 06:07:34;;;;;;;;;24.50;22.50;;;;;;;;6490827;39;9057;-70
2024/04/27 06:13:36;;;;;;;;;25.00;22.50;;;;;;;;6491092;39;8927;-67
2024/04/27 06:19:37;;;;;;;;;24.50;22.50;;;;;;;;6490144;46;8892;-67
2024/04/27 06:25:44;;;;;;;;;19.00;17.67;;;;;;;;6488914;46;8963;-67
2024/04/27 06:31:47;;;;;;;;;24.67;22.67;;;;;;;;6490856;39;8976;-68
2024/04/27 06:37:49;;;;;;;;;22.00;21.33;;;;;;;;6490395;39;8881;-69
2024/04/27 06:43:52;;;;;;;;;22.00;21.67;;;;;;;;6490693;39;8864;-68
2024/04/27 06:49:56;;;;;;;;;18.67;18.67;;;;;;;;6489574;39;8924;-68
2024/04/27 06:56:00;;;;;;;;;21.00;18.33;;;;;;;;6490082;39;8907;-68
2024/04/27 07:02:02;;;;;;;;;19.67;16.00;;;;;;;;6490662;39;9076;-68
2024/04/27 07:08:05;;;;;;;;;16.33;16.00;;;;;;;;6490673;39;9034;-67
2024/04/27 07:14:07;;;;;;;;;19.67;16.67;;;;;;;;6490150;39;9722;-70
2024/04/27 07:20:12;;;;;;;;;19.33;18.00;;;;;;;;6490456;39;9499;-69
2024/04/27 07:26:16;;;;;;;;;13.67;13.00;;;;;;;;6490248;39;8869;-67
2024/04/27 07:32:19;;;;;;;;;14.00;14.00;;;;;;;;6489963;31;8888;-68
2024/04/27 07:38:21;;;;;;;;;13.33;13.00;;;;;;;;6489165;46;8892;-69
2024/04/27 07:44:24;;;;;;;;;11.67;11.67;;;;;;;;6488861;46;8903;-69
2024/04/27 07:50:27;;;;;;;;;12.33;12.00;;;;;;;;6488514;46;8998;-69
2024/04/27 07:56:29;;;;;;;;;10.67;10.67;;;;;;;;6309481;39;10000392;-69
2024/04/27 08:02:31;;;;;;;;;10.33;8.00;;;;;;;;6490339;31;9086;-70
2024/04/27 08:08:33;;;;;;;;;10.67;9.33;;;;;;;;6489616;47;9030;-69
2024/04/27 08:14:39;;;;;;;;;8.33;8.33;;;;;;;;6496854;36;8885;-68
2024/04/27 08:20:41;;;;;;;;;9.67;8.67;;;;;;;;6489668;39;9001;-69
2024/04/27 08:26:42;;;;;;;;;8.33;8.33;;;;;;;;6490738;39;8898;-68
2024/04/27 08:32:46;;;;;;;;;7.75;7.00;;;;;;;;6490991;46;8940;-68
2024/04/27 08:38:51;;;;;;;;;7.50;7.50;;;;;;;;6491267;39;9541;-68
2024/04/27 08:44:56;;;;;;;;;7.00;6.00;;;;;;;;6490292;31;8907;-68
2024/04/27 08:51:01;;;;;;;;;10.50;10.50;;;;;;;;6490946;46;8906;-69
2024/04/27 08:57:09;;;;;;;;;10.50;10.50;;;;;;;;6491293;39;9004;-67
2024/04/27 09:03:18;;;;;;;;;6.25;6.25;;;;;;;;6491237;39;8926;-69
2024/04/27 09:09:24;;;;;;;;;10.75;10.75;;;;;;;;6491348;39;9028;-67
2024/04/27 09:15:26;;;;;;;;;10.00;9.75;;;;;;;;6490490;39;8945;-70
2024/04/27 09:21:30;;;;;;;;;8.00;8.00;;;;;;;;6489697;46;8885;-68
2024/04/27 09:27:32;;;;;;;;;9.00;9.00;;;;;;;;6489990;46;8977;-71
2024/04/27 09:33:38;;;;;;;;;9.50;8.50;;;;;;;;6489830;46;9044;-70
2024/04/27 09:39:56;;;;;;;;;7.75;7.50;;;;;;;;6490064;46;8907;-69
2024/04/27 09:46:06;;;;;;;;;9.50;8.50;;;;;;;;6490843;39;8881;-70
2024/04/27 09:52:14;;;;;;;;;10.00;10.00;;;;;;;;6490369;39;8949;-67
2024/04/27 09:58:35;;;;;;;;;11.50;10.50;;;;;;;;6490809;39;9007;-68
2024/04/27 10:04:42;;;;;;;;;11.00;11.00;;;;;;;;6490005;46;9002;-69
2024/04/27 10:10:45;;;;;;;;;10.00;10.00;;;;;;;;6490189;39;8882;-68
2024/04/27 10:17:11;;;;;;;;;13.25;13.25;;;;;;;;6490208;46;8840;-69
2024/04/27 10:23:14;;;;;;;;;8.25;8.00;;;;;;;;6490052;46;8924;-69
2024/04/27 10:29:27;;;;;;;;;8.00;8.00;;;;;;;;6490104;46;8864;-68
2024/04/27 10:35:31;;;;;;;;;8.50;8.50;;;;;;;;6490296;39;9006;-69
2024/04/27 10:41:37;;;;;;;;;11.00;10.00;;;;;;;;6490737;31;8898;-69
2024/04/27 10:47:41;;;;;;;;;11.25;10.50;;;;;;;;6489926;46;8939;-69
2024/04/27 10:53:45;;;;;;;;;8.00;8.00;;;;;;;;6489771;46;8844;-69
2024/04/27 10:59:55;;;;;;;;;8.00;8.00;;;;;;;;6490874;39;9002;-70
2024/04/27 11:06:01;;;;;;;;;12.00;11.00;;;;;;;;6490007;39;8916;-67
2024/04/27 11:12:06;;;;;;;;;10.25;10.25;;;;;;;;6490154;39;8989;-68
2024/04/27 11:18:10;;;;;;;;;9.25;9.25;;;;;;;;6490276;39;8931;-70
2024/04/27 11:24:12;;;;;;;;;7.75;7.75;;;;;;;;6488318;39;8904;-69
2024/04/27 11:30:22;;;;;;;;;11.00;9.00;;;;;;;;6490343;39;8903;-67
2024/04/27 11:36:24;;;;;;;;;13.25;10.00;;;;;;;;6489914;39;8867;-68
2024/04/27 11:42:27;;;;;;;;;9.25;9.25;;;;;;;;6490033;39;8931;-68
2024/04/27 11:48:30;;;;;;;;;9.00;8.75;;;;;;;;6489603;31;8913;-69
2024/04/27 11:54:33;;;;;;;;;11.00;11.00;;;;;;;;6489551;39;9563;-68
2024/04/27 12:00:38;;;;;;;;;10.50;10.50;;;;;;;;6489297;39;9597;-70
2024/04/27 12:06:41;;;;;;;;;9.75;9.75;;;;;;;;6489196;47;8975;-67
2024/04/27 12:12:44;;;;;;;;;17.25;12.00;;;;;;;;6489555;39;9525;-69
2024/04/27 12:18:49;;;;;;;;;7.25;7.25;;;;;;;;6489136;31;9087;-68
2024/04/27 12:24:52;;;;;;;;;8.75;8.75;;;;;;;;6489200;39;8946;-69
2024/04/27 12:30:59;;;;;;;;;8.25;8.25;;;;;;;;6490090;39;9525;-69
2024/04/27 12:37:01;;;;;;;;;8.00;8.00;;;;;;;;6489031;39;9485;-68
2024/04/27 12:43:05;;;;;;;;;7.25;7.00;;;;;;;;6489763;39;8880;-67
2024/04/27 12:49:31;;;;;;;;;10.00;9.25;;;;;;;;6490425;39;9867;-69
2024/04/27 12:55:33;;;;;;;;;8.25;7.50;;;;;;;;6489670;39;8930;-69
2024/04/27 13:01:41;;;;;;;;;9.50;9.50;;;;;;;;6489298;39;8906;-69
2024/04/27 13:07:51;;;;;;;;;9.50;8.00;;;;;;;;6488885;39;8924;-68
2024/04/27 13:13:53;;;;;;;;;9.00;7.00;;;;;;;;6491701;31;8915;-69
2024/04/27 13:19:58;;;;;;;;;9.00;9.00;;;;;;;;6490715;39;8924;-68
2024/04/27 13:26:01;;;;;;;;;7.75;7.75;;;;;;;;6490751;46;9013;-70
2024/04/27 13:32:06;;;;;;;;;10.75;9.75;;;;;;;;6490253;46;8904;-68
2024/04/27 13:38:23;;;;;;;;;4.00;4.00;;;;;;;;6490415;46;8918;-69
2024/04/27 13:44:28;;;;;;;;;8.00;7.25;;;;;;;;6491025;39;8903;-69
2024/04/27 13:50:32;;;;;;;;;7.50;7.50;;;;;;;;6490940;32;9073;-68
2024/04/27 13:56:40;;;;;;;;;9.00;8.25;;;;;;;;6491095;39;8852;-69
2024/04/27 14:02:43;;;;;;;;;7.75;7.75;;;;;;;;6490271;46;9166;-68
2024/04/27 14:08:43;;;;;;;;;8.75;8.75;;;;;;;;6490634;46;9048;-69
2024/04/27 14:14:46;;;;;;;;;21.50;19.25;;;;;;;;6490697;39;8995;-67
2024/04/27 14:20:51;;;;;;;;;18.00;15.75;;;;;;;;6488926;31;8922;-68
2024/04/27 14:26:56;;;;;;;;;8.00;8.00;;;;;;;;6490380;46;8843;-69
2024/04/27 14:33:00;;;;;;;;;7.50;7.00;;;;;;;;6490350;39;8880;-70
2024/04/27 14:39:02;;;;;;;;;9.50;8.00;;;;;;;;6488761;46;8878;-69
2024/04/27 14:45:06;;;;;;;;;8.50;7.75;;;;;;;;6490984;31;8839;-66
2024/04/27 14:51:11;;;;;;;;;7.75;7.75;;;;;;;;6490189;39;8879;-69
2024/04/27 14:57:15;;;;;;;;;8.00;7.00;;;;;;;;6490180;39;9460;-69
2024/04/27 15:03:17;;;;;;;;;8.75;6.50;;;;;;;;6489872;46;8914;-68
2024/04/27 15:09:22;;;;;;;;;8.50;8.25;;;;;;;;6490483;39;8998;-69
2024/04/27 15:15:33;;;;;;;;;8.00;7.25;;;;;;;;6489092;39;8894;-70
2024/04/27 15:21:42;;;;;;;;;5.25;5.25;;;;;;;;6489552;39;8907;-69
2024/04/27 15:27:45;;;;;;;;;5.50;5.50;;;;;;;;6490021;39;8902;-70
2024/04/27 15:33:49;;;;;;;;;6.25;5.00;;;;;;;;6489158;39;8888;-70
2024/04/27 15:39:54;;;;;;;;;8.25;8.25;;;;;;;;6489790;46;8846;-68
2024/04/27 15:45:58;;;;;;;;;10.50;9.75;;;;;;;;6490126;39;9571;-68
2024/04/27 15:52:01;;;;;;;;;8.50;8.50;;;;;;;;6489393;46;8886;-68
2024/04/27 15:58:04;;;;;;;;;10.00;10.00;;;;;;;;6489615;46;8883;-69
2024/04/27 16:04:13;;;;;;;;;9.75;9.00;;;;;;;;6489631;39;8887;-68
2024/04/27 16:10:19;;;;;;;;;9.00;8.00;;;;;;;;6489080;39;8951;-68
2024/04/27 16:16:21;;;;;;;;;9.67;9.67;;;;;;;;6489921;39;9666;-69
2024/04/27 16:22:26;;;;;;;;;9.50;8.25;;;;;;;;6489294;39;8903;-70
2024/04/27 16:28:27;;;;;;;;;12.00;11.00;;;;;;;;6489627;39;8985;-68
2024/04/27 16:34:32;;;;;;;;;9.00;9.00;;;;;;;;6489608;31;8900;-70
2024/04/27 16:40:38;;;;;;;;;11.67;10.67;;;;;;;;6489635;39;8917;-68
2024/04/27 16:46:42;;;;;;;;;10.67;10.67;;;;;;;;6490600;31;8907;-70
2024/04/27 16:52:46;;;;;;;;;13.00;11.67;;;;;;;;6490259;39;8894;-68
